Time,TemperatureF,DewpointF,PressureIn,WindDirection,WindDirectionDegrees,WindSpeedMPH,WindSpeedGustMPH,Humidity,HourlyPrecipIn,Conditions,Clouds,dailyrainin,SoftwareType,DateUTC
2013-12-10 00:00:00,9.3,3.3,30.30,ESE,110,0.0,2.7,76,0.00,,SKC,0.00,VWS V13.01,2013-12-10 06:00:00,
2013-12-10 00:10:00,9.5,3.5,30.30,NE,39,0.0,2.7,76,0.00,,SKC,0.00,VWS V13.01,2013-12-10 06:10:00,
2013-12-10 00:20:00,9.7,3.7,30.30,NE,34,0.0,3.6,76,0.00,,SKC,0.00,VWS V13.01,2013-12-10 06:20:00,
2013-12-10 00:30:00,9.7,3.7,30.30,East,87,0.0,3.6,76,0.00,,SKC,0.00,VWS V13.01,2013-12-10 06:30:00,
2013-12-10 00:40:00,10.0,4.0,30.30,ENE,66,0.0,3.1,76,0.00,,SKC,0.00,VWS V13.01,2013-12-10 06:40:00,
2013-12-10 00:50:00,10.6,4.5,30.27,South,177,6.3,6.3,76,0.00,,SKC,0.00,VWS V13.01,2013-12-10 06:50:00,
2013-12-10 01:00:00,11.1,5.1,30.27,ENE,58,4.0,6.3,76,0.00,,SKC,0.00,VWS V13.01,2013-12-10 07:00:00,
2013-12-10 01:10:00,11.8,5.8,30.27,SSE,168,2.7,4.9,76,0.00,,SKC,0.00,VWS V13.01,2013-12-10 07:10:00,
2013-12-10 01:20:00,12.6,6.4,30.27,NNE,24,4.0,4.9,76,0.00,,SKC,0.00,VWS V13.01,2013-12-10 07:20:00,
2013-12-10 01:30:00,12.9,6.8,30.27,SE,146,2.7,4.0,76,0.00,,SKC,0.00,VWS V13.01,2013-12-10 07:30:00,
2013-12-10 01:40:00,13.3,7.1,30.27,NE,54,0.0,5.4,76,0.00,,SKC,0.00,VWS V13.01,2013-12-10 07:40:00,
2013-12-10 01:50:00,13.5,7.3,30.27,ESE,116,2.7,3.6,76,0.00,,SKC,0.00,VWS V13.01,2013-12-10 07:50:00,
2013-12-10 02:00:00,13.5,7.3,30.27,NE,51,0.0,6.3,76,0.00,,SKC,0.00,VWS V13.01,2013-12-10 08:00:00,
2013-12-10 02:10:00,13.5,7.3,30.27,East,86,3.6,5.4,76,0.00,,SKC,0.00,VWS V13.01,2013-12-10 08:10:00,
2013-12-10 02:20:00,13.8,7.7,30.27,NNE,18,3.6,4.0,76,0.00,,SKC,0.00,VWS V13.01,2013-12-10 08:20:00,
2013-12-10 02:30:00,14.2,-1.0,30.27,NNE,14,3.6,4.9,50,0.00,,SKC,0.00,VWS V13.01,2013-12-10 08:30:00,
2013-12-10 02:40:00,14.2,-1.0,30.27,NE,41,2.2,4.9,50,0.00,,SKC,0.00,VWS V13.01,2013-12-10 08:40:00,
2013-12-10 02:50:00,14.2,-1.0,30.27,SE,140,0.0,5.4,50,0.00,,SKC,0.00,VWS V13.01,2013-12-10 08:50:00,
2013-12-10 03:00:00,14.2,-1.0,30.27,SE,138,0.0,4.0,50,0.00,,SKC,0.00,VWS V13.01,2013-12-10 09:00:00,
2013-12-10 03:10:00,14.2,-1.0,30.27,SE,127,0.0,6.3,50,0.00,,SKC,0.00,VWS V13.01,2013-12-10 09:10:00,
2013-12-10 03:20:00,14.2,-1.0,30.24,SE,138,2.7,5.4,50,0.00,,SKC,0.00,VWS V13.01,2013-12-10 09:20:00,
2013-12-10 03:30:00,14.2,-1.0,30.24,NNE,13,3.1,4.0,50,0.00,,SKC,0.00,VWS V13.01,2013-12-10 09:30:00,
2013-12-10 03:40:00,14.2,-1.0,30.24,NNE,31,0.0,4.9,50,0.00,,SKC,0.00,VWS V13.01,2013-12-10 09:40:00,
2013-12-10 03:50:00,14.4,-0.9,30.24,East,88,3.6,4.9,50,0.00,,SKC,0.00,VWS V13.01,2013-12-10 09:50:00,
2013-12-10 04:00:00,14.4,-0.9,30.24,NE,38,2.7,4.5,50,0.00,,SKC,0.00,VWS V13.01,2013-12-10 10:00:00,
2013-12-10 04:10:00,14.2,-1.0,30.24,ESE,114,0.0,5.4,50,0.00,,SKC,0.00,VWS V13.01,2013-12-10 10:10:00,
2013-12-10 04:20:00,14.2,-1.0,30.21,SSW,198,0.0,4.9,50,0.00,,SKC,0.00,VWS V13.01,2013-12-10 10:20:00,
2013-12-10 04:30:00,14.2,-1.0,30.21,SE,134,0.0,4.0,50,0.00,,SKC,0.00,VWS V13.01,2013-12-10 10:30:00,
2013-12-10 04:40:00,14.4,-0.9,30.24,ESE,113,2.7,4.9,50,0.00,,SKC,0.00,VWS V13.01,2013-12-10 10:40:00,
2013-12-10 04:50:00,14.4,-0.9,30.24,East,79,0.0,3.6,50,0.00,,SKC,0.00,VWS V13.01,2013-12-10 10:50:00,
2013-12-10 05:00:00,14.2,-1.0,30.24,ESE,109,0.0,4.0,50,0.00,,SKC,0.00,VWS V13.01,2013-12-10 11:00:00,
2013-12-10 05:10:00,14.2,-1.0,30.24,East,93,0.0,3.6,50,0.00,,SKC,0.00,VWS V13.01,2013-12-10 11:10:00,
2013-12-10 05:20:00,14.2,-1.0,30.24,East,89,0.0,0.0,50,0.00,,SKC,0.00,VWS V13.01,2013-12-10 11:20:00,
2013-12-10 05:30:00,14.2,-1.0,30.24,NE,50,0.0,2.7,50,0.00,,SKC,0.00,VWS V13.01,2013-12-10 11:30:00,
2013-12-10 05:40:00,14.4,-0.9,30.24,South,171,0.0,0.0,50,0.00,,SKC,0.00,VWS V13.01,2013-12-10 11:40:00,
2013-12-10 05:50:00,14.5,-0.7,30.24,NE,54,0.0,4.0,50,0.00,,SKC,0.00,VWS V13.01,2013-12-10 11:50:00,
2013-12-10 06:00:00,14.5,-0.7,30.24,ENE,69,0.0,0.0,50,0.00,,SKC,0.00,VWS V13.01,2013-12-10 12:00:00,
2013-12-10 06:10:00,14.4,-0.9,30.27,South,182,0.0,4.0,50,0.00,,SKC,0.00,VWS V13.01,2013-12-10 12:10:00,
2013-12-10 06:20:00,14.4,-0.9,30.27,SSE,158,0.0,0.0,50,0.00,,SKC,0.00,VWS V13.01,2013-12-10 12:20:00,
2013-12-10 06:30:00,14.4,-0.9,30.27,South,178,0.0,0.0,50,0.00,,SKC,0.00,VWS V13.01,2013-12-10 12:30:00,
2013-12-10 06:40:00,14.4,-0.9,30.27,SE,131,0.0,0.0,50,0.00,,SKC,0.00,VWS V13.01,2013-12-10 12:40:00,
2013-12-10 06:50:00,14.9,0.5,30.30,East,83,3.6,4.0,52,0.00,,SKC,0.00,VWS V13.01,2013-12-10 12:50:00,
2013-12-10 07:00:00,15.1,0.6,30.30,NNE,24,2.2,5.4,52,0.00,,SKC,0.00,VWS V13.01,2013-12-10 13:00:00,
2013-12-10 07:10:00,14.9,-0.4,30.27,ESE,105,0.0,4.0,50,0.00,,SKC,0.00,VWS V13.01,2013-12-10 13:10:00,
2013-12-10 07:20:00,14.9,-0.4,30.27,South,179,0.0,3.6,50,0.00,,SKC,0.00,VWS V13.01,2013-12-10 13:20:00,
2013-12-10 07:30:00,14.5,-0.7,30.27,ESE,120,0.0,0.0,50,0.00,,SKC,0.00,VWS V13.01,2013-12-10 13:30:00,
2013-12-10 07:40:00,14.5,-0.7,30.27,ENE,57,0.0,3.1,50,0.00,,SKC,0.00,VWS V13.01,2013-12-10 13:40:00,
2013-12-10 07:50:00,14.5,-0.7,30.27,ENE,64,0.0,0.0,50,0.00,,SKC,0.00,VWS V13.01,2013-12-10 13:50:00,
2013-12-10 08:00:00,14.5,-0.7,30.27,NE,52,0.0,0.0,50,0.00,,SKC,0.00,VWS V13.01,2013-12-10 14:00:00,
2013-12-10 08:10:00,14.9,0.5,30.30,ESE,117,0.0,3.6,52,0.00,,SKC,0.00,VWS V13.01,2013-12-10 14:10:00,
2013-12-10 08:20:00,15.3,0.8,30.30,ESE,109,0.0,0.0,52,0.00,,SKC,0.00,VWS V13.01,2013-12-10 14:20:00,
2013-12-10 08:30:00,15.4,1.0,30.30,NNE,27,0.0,3.1,52,0.00,,SKC,0.00,VWS V13.01,2013-12-10 14:30:00,
2013-12-10 08:40:00,15.8,1.3,30.33,ENE,59,2.2,3.1,52,0.00,,SKC,0.00,VWS V13.01,2013-12-10 14:40:00,
2013-12-10 08:50:00,16.3,1.8,30.33,East,79,0.0,3.1,52,0.00,,SKC,0.00,VWS V13.01,2013-12-10 14:50:00,
2013-12-10 09:00:00,16.9,1.0,30.33,ENE,57,0.0,3.6,49,0.00,,SKC,0.00,VWS V13.01,2013-12-10 15:00:00,
2013-12-10 09:10:00,17.6,1.7,30.33,East,97,0.0,4.0,49,0.00,,SKC,0.00,VWS V13.01,2013-12-10 15:10:00,
2013-12-10 09:20:00,18.3,2.4,30.36,NNE,18,0.0,4.0,49,0.00,,SKC,0.00,VWS V13.01,2013-12-10 15:20:00,
2013-12-10 09:30:00,19.4,3.4,30.36,NE,40,0.0,6.3,49,0.00,,SKC,0.00,VWS V13.01,2013-12-10 15:30:00,
2013-12-10 09:40:00,20.3,3.8,30.36,ENE,77,0.0,3.1,48,0.00,,SKC,0.00,VWS V13.01,2013-12-10 15:40:00,
2013-12-10 09:50:00,20.8,4.2,30.36,ENE,76,0.0,0.0,48,0.00,,SKC,0.00,VWS V13.01,2013-12-10 15:50:00,
2013-12-10 10:00:00,21.2,4.6,30.36,NNE,33,0.0,0.0,48,0.00,,SKC,0.00,VWS V13.01,2013-12-10 16:00:00,
2013-12-10 10:10:00,21.7,5.1,30.36,NE,34,0.0,3.6,48,0.00,,SKC,0.00,VWS V13.01,2013-12-10 16:10:00,
2013-12-10 10:20:00,22.5,5.8,30.36,NNE,27,0.0,0.0,48,0.00,,SKC,0.00,VWS V13.01,2013-12-10 16:20:00,
2013-12-10 10:30:00,23.2,6.4,30.36,NE,34,0.0,4.0,48,0.00,,SKC,0.00,VWS V13.01,2013-12-10 16:30:00,
2013-12-10 10:40:00,23.7,5.5,30.36,NNE,23,4.9,5.8,45,0.00,,SKC,0.00,VWS V13.01,2013-12-10 16:40:00,
2013-12-10 10:50:00,24.6,6.3,30.36,NNE,16,3.1,5.4,45,0.00,,SKC,0.00,VWS V13.01,2013-12-10 16:50:00,
2013-12-10 11:00:00,25.2,6.8,30.36,NNE,26,0.0,3.6,45,0.00,,SKC,0.00,VWS V13.01,2013-12-10 17:00:00,
2013-12-10 11:10:00,25.7,7.3,30.36,NNE,22,0.0,0.0,45,0.00,,SKC,0.00,VWS V13.01,2013-12-10 17:10:00,
2013-12-10 11:20:00,26.2,7.8,30.36,ENE,75,0.0,0.0,45,0.00,,SKC,0.00,VWS V13.01,2013-12-10 17:20:00,
2013-12-10 11:30:00,27.0,8.0,30.36,ENE,64,2.7,6.7,44,0.00,,SKC,0.00,VWS V13.01,2013-12-10 17:30:00,
2013-12-10 11:40:00,27.1,8.1,30.36,NE,56,0.0,2.7,44,0.00,,SKC,0.00,VWS V13.01,2013-12-10 17:40:00,
2013-12-10 11:50:00,27.9,8.8,30.36,ENE,67,3.1,5.4,44,0.00,,SKC,0.00,VWS V13.01,2013-12-10 17:50:00,
2013-12-10 12:00:00,27.9,8.8,30.36,NNE,31,0.0,3.1,44,0.00,,SKC,0.00,VWS V13.01,2013-12-10 18:00:00,
2013-12-10 12:10:00,28.2,9.1,30.33,NE,43,0.0,0.0,44,0.00,,SKC,0.00,VWS V13.01,2013-12-10 18:10:00,
2013-12-10 12:20:00,28.6,7.9,30.33,NNE,20,3.6,3.6,41,0.00,,SKC,0.00,VWS V13.01,2013-12-10 18:20:00,
2013-12-10 12:30:00,28.6,7.9,30.33,NE,35,0.0,4.0,41,0.00,,SKC,0.00,VWS V13.01,2013-12-10 18:30:00,
2013-12-10 12:40:00,29.1,8.4,30.33,NNE,21,4.0,4.0,41,0.00,,SKC,0.00,VWS V13.01,2013-12-10 18:40:00,
2013-12-10 12:50:00,29.1,8.4,30.33,NNE,25,0.0,4.0,41,0.00,,SKC,0.00,VWS V13.01,2013-12-10 18:50:00,
2013-12-10 13:00:00,29.5,8.7,30.33,NNE,26,0.0,0.0,41,0.00,,SKC,0.00,VWS V13.01,2013-12-10 19:00:00,
2013-12-10 13:10:00,29.8,9.0,30.30,NNE,25,0.0,0.0,41,0.00,,SKC,0.00,VWS V13.01,2013-12-10 19:10:00,
2013-12-10 13:20:00,30.2,9.4,30.30,NE,39,0.0,0.0,41,0.00,,SKC,0.00,VWS V13.01,2013-12-10 19:20:00,
2013-12-10 13:30:00,30.6,9.7,30.30,NE,39,0.0,0.0,41,0.00,,SKC,0.00,VWS V13.01,2013-12-10 19:30:00,
2013-12-10 13:40:00,30.6,9.7,30.30,NE,39,0.0,0.0,41,0.00,,SKC,0.00,VWS V13.01,2013-12-10 19:40:00,
2013-12-10 13:50:00,30.7,9.8,30.30,NNE,33,0.0,0.0,41,0.00,,SKC,0.00,VWS V13.01,2013-12-10 19:50:00,
2013-12-10 14:00:00,31.1,10.2,30.30,NNE,33,0.0,0.0,41,0.00,,SKC,0.00,VWS V13.01,2013-12-10 20:00:00,
2013-12-10 14:10:00,31.5,10.5,30.30,East,100,0.0,0.0,41,0.00,,SKC,0.00,VWS V13.01,2013-12-10 20:10:00,
2013-12-10 14:20:00,31.3,10.3,30.27,NNE,25,0.0,0.0,41,0.00,,SKC,0.00,VWS V13.01,2013-12-10 20:20:00,
2013-12-10 14:30:00,31.1,10.2,30.27,ENE,69,0.0,3.1,41,0.00,,SKC,0.00,VWS V13.01,2013-12-10 20:30:00,
2013-12-10 14:40:00,31.3,10.3,30.27,East,79,0.0,0.0,41,0.00,,SKC,0.00,VWS V13.01,2013-12-10 20:40:00,
2013-12-10 14:50:00,31.6,10.6,30.27,NE,46,0.0,0.0,41,0.00,,SKC,0.00,VWS V13.01,2013-12-10 20:50:00,
2013-12-10 15:00:00,31.6,10.6,30.27,NNE,23,0.0,0.0,41,0.00,,SKC,0.00,VWS V13.01,2013-12-10 21:00:00,
2013-12-10 15:10:00,31.8,10.8,30.27,NNE,19,0.0,0.0,41,0.00,,SKC,0.00,VWS V13.01,2013-12-10 21:10:00,
2013-12-10 15:20:00,32.0,11.0,30.27,East,97,0.0,0.0,41,0.00,,SKC,0.00,VWS V13.01,2013-12-10 21:20:00,
2013-12-10 15:30:00,32.0,11.0,30.27,NNE,30,0.0,0.0,41,0.00,,SKC,0.00,VWS V13.01,2013-12-10 21:30:00,
2013-12-10 15:40:00,32.0,12.6,30.27,NE,51,0.0,0.0,44,0.00,,SKC,0.00,VWS V13.01,2013-12-10 21:40:00,
2013-12-10 15:50:00,32.0,12.6,30.27,NE,56,0.0,0.0,44,0.00,,SKC,0.00,VWS V13.01,2013-12-10 21:50:00,
2013-12-10 16:00:00,31.8,12.4,30.27,NE,56,0.0,0.0,44,0.00,,SKC,0.00,VWS V13.01,2013-12-10 22:00:00,
2013-12-10 16:10:00,31.8,12.4,30.27,NE,56,0.0,0.0,44,0.00,,SKC,0.00,VWS V13.01,2013-12-10 22:10:00,
2013-12-10 16:20:00,31.6,12.2,30.27,NE,56,0.0,0.0,44,0.00,,SKC,0.00,VWS V13.01,2013-12-10 22:20:00,
2013-12-10 16:30:00,31.3,11.9,30.27,NE,56,0.0,0.0,44,0.00,,SKC,0.00,VWS V13.01,2013-12-10 22:30:00,
2013-12-10 16:40:00,31.1,11.8,30.27,NE,56,0.0,0.0,44,0.00,,SKC,0.00,VWS V13.01,2013-12-10 22:40:00,
2013-12-10 16:50:00,30.6,11.2,30.27,NE,56,0.0,0.0,44,0.00,,SKC,0.00,VWS V13.01,2013-12-10 22:50:00,
2013-12-10 17:00:00,30.2,10.9,30.27,NE,56,0.0,0.0,44,0.00,,SKC,0.00,VWS V13.01,2013-12-10 23:00:00,
2013-12-10 17:10:00,29.5,10.3,30.27,NE,56,0.0,0.0,44,0.00,,SKC,0.00,VWS V13.01,2013-12-10 23:10:00,
2013-12-10 17:20:00,28.9,9.8,30.27,NE,56,0.0,0.0,44,0.00,,SKC,0.00,VWS V13.01,2013-12-10 23:20:00,
2013-12-10 17:30:00,28.4,9.3,30.27,NE,56,0.0,0.0,44,0.00,,SKC,0.00,VWS V13.01,2013-12-10 23:30:00,
2013-12-10 17:40:00,27.9,8.8,30.24,NE,56,0.0,0.0,44,0.00,,SKC,0.00,VWS V13.01,2013-12-10 23:40:00,
2013-12-10 17:50:00,27.0,8.0,30.24,NE,56,0.0,0.0,44,0.00,,SKC,0.00,VWS V13.01,2013-12-10 23:50:00,
2013-12-10 18:00:00,26.4,8.0,30.24,NE,56,0.0,0.0,45,0.00,,SKC,0.00,VWS V13.01,2013-12-11 00:00:00,
2013-12-10 18:10:00,26.6,8.1,30.24,NE,56,0.0,0.0,45,0.00,,SKC,0.00,VWS V13.01,2013-12-11 00:10:00,
2013-12-10 18:20:00,26.1,7.6,30.27,NE,56,0.0,0.0,45,0.00,,SKC,0.00,VWS V13.01,2013-12-11 00:20:00,
2013-12-10 18:30:00,25.5,7.2,30.27,NE,56,0.0,0.0,45,0.00,,SKC,0.00,VWS V13.01,2013-12-11 00:30:00,
2013-12-10 18:40:00,25.0,6.7,30.24,NE,56,0.0,0.0,45,0.00,,SKC,0.00,VWS V13.01,2013-12-11 00:40:00,
2013-12-10 18:50:00,25.0,6.7,30.24,NE,56,0.0,0.0,45,0.00,,SKC,0.00,VWS V13.01,2013-12-11 00:50:00,
2013-12-10 19:00:00,25.3,7.9,30.24,NE,56,0.0,0.0,47,0.00,,SKC,0.00,VWS V13.01,2013-12-11 01:00:00,
2013-12-10 19:20:00,26.8,9.3,30.27,NE,56,0.0,0.0,47,0.00,,SKC,0.00,VWS V13.01,2013-12-11 01:20:00,
2013-12-10 19:30:00,27.9,10.3,30.27,NE,56,0.0,0.0,47,0.00,,SKC,0.00,VWS V13.01,2013-12-11 01:30:00,
2013-12-10 19:40:00,28.2,10.6,30.27,NE,56,0.0,0.0,47,0.00,,SKC,0.00,VWS V13.01,2013-12-11 01:40:00,
2013-12-10 19:50:00,28.4,10.8,30.27,NE,56,0.0,0.0,47,0.00,,SKC,0.00,VWS V13.01,2013-12-11 01:50:00,
2013-12-10 20:00:00,28.2,10.6,30.27,NE,56,0.0,0.0,47,0.00,,SKC,0.00,VWS V13.01,2013-12-11 02:00:00,
2013-12-10 20:10:00,28.2,10.6,30.27,NE,56,0.0,0.0,47,0.00,,SKC,0.00,VWS V13.01,2013-12-11 02:10:00,
2013-12-10 20:20:00,28.4,10.8,30.27,NE,56,0.0,0.0,47,0.00,,SKC,0.00,VWS V13.01,2013-12-11 02:20:00,
2013-12-10 20:30:00,28.8,10.6,30.27,NE,56,0.0,0.0,46,0.00,,SKC,0.00,VWS V13.01,2013-12-11 02:30:00,
2013-12-10 20:40:00,29.1,10.9,30.27,ENE,58,0.0,0.0,46,0.00,,SKC,0.00,VWS V13.01,2013-12-11 02:40:00,
2013-12-10 20:50:00,29.1,10.9,30.27,ENE,58,0.0,0.0,46,0.00,,SKC,0.00,VWS V13.01,2013-12-11 02:50:00,
2013-12-10 21:00:00,28.8,9.6,30.27,ENE,58,0.0,0.0,44,0.00,,SKC,0.00,VWS V13.01,2013-12-11 03:00:00,
2013-12-10 21:10:00,28.9,9.8,30.27,ENE,58,0.0,0.0,44,0.00,,SKC,0.00,VWS V13.01,2013-12-11 03:10:00,
2013-12-10 21:20:00,29.1,10.9,30.27,ENE,58,0.0,0.0,46,0.00,,SKC,0.00,VWS V13.01,2013-12-11 03:20:00,
2013-12-10 21:30:00,29.5,11.3,30.27,SSE,151,0.0,0.0,46,0.00,,SKC,0.00,VWS V13.01,2013-12-11 03:30:00,
2013-12-10 21:40:00,29.8,10.6,30.27,SE,138,0.0,0.0,44,0.00,,SKC,0.00,VWS V13.01,2013-12-11 03:40:00,
2013-12-10 21:50:00,30.0,10.8,30.27,SE,138,0.0,0.0,44,0.00,,SKC,0.00,VWS V13.01,2013-12-11 03:50:00,
2013-12-10 22:00:00,30.2,10.9,30.27,ENE,69,0.0,0.0,44,0.00,,SKC,0.00,VWS V13.01,2013-12-11 04:00:00,
2013-12-10 22:10:00,30.2,10.9,30.27,East,99,0.0,0.0,44,0.00,,SKC,0.00,VWS V13.01,2013-12-11 04:10:00,
2013-12-10 22:20:00,30.0,10.8,30.27,East,99,0.0,0.0,44,0.00,,SKC,0.00,VWS V13.01,2013-12-11 04:20:00,
2013-12-10 22:30:00,29.8,10.6,30.27,East,99,0.0,0.0,44,0.00,,SKC,0.00,VWS V13.01,2013-12-11 04:30:00,
2013-12-10 22:40:00,29.8,10.6,30.27,SE,130,0.0,0.0,44,0.00,,SKC,0.00,VWS V13.01,2013-12-11 04:40:00,
2013-12-10 22:50:00,30.0,10.8,30.27,ENE,64,0.0,2.7,44,0.00,,SKC,0.00,VWS V13.01,2013-12-11 04:50:00,
2013-12-10 23:00:00,29.8,10.6,30.27,ESE,102,0.0,0.0,44,0.00,,SKC,0.00,VWS V13.01,2013-12-11 05:00:00,
2013-12-10 23:10:00,29.5,10.3,30.27,ESE,102,0.0,0.0,44,0.00,,SKC,0.00,VWS V13.01,2013-12-11 05:10:00,
2013-12-10 23:20:00,29.3,11.1,30.27,ESE,102,0.0,0.0,46,0.00,,SKC,0.00,VWS V13.01,2013-12-11 05:20:00,
2013-12-10 23:30:00,29.1,10.9,30.27,ESE,102,0.0,0.0,46,0.00,,SKC,0.00,VWS V13.01,2013-12-11 05:30:00,
2013-12-10 23:40:00,28.9,10.8,30.27,ESE,102,0.0,0.0,46,0.00,,SKC,0.00,VWS V13.01,2013-12-11 05:40:00,
2013-12-10 23:50:00,28.6,10.4,30.27,ESE,102,0.0,0.0,46,0.00,,SKC,0.00,VWS V13.01,2013-12-11 05:50:00,